Time;durP1;ratioP1;P1;durP2;ratioP2;P2;SDS_P1;SDS_P2;PMS_P1;PMS_P2;Temp;Humidity;BMP_temperature;BMP_pressure;BME280_temperature;BME280_humidity;BME280_pressure;Samples;Min_cycle;Max_cycle;Signal;HPM_P1;HPM_P2
2023/05/21 00:00:50;;;;;;;22.60;10.70;;;;;;;13.94;73.47;99690.48;103416;1277;96646;-77
2023/05/21 00:03:40;;;;;;;22.90;11.90;;;;;;;13.91;73.51;99687.67;103478;1279;97880;-78
2023/05/21 00:06:08;;;;;;;21.90;11.50;;;;;;;13.90;73.63;99684.73;103449;1277;110116;-79
2023/05/21 00:08:36;;;;;;;21.70;10.80;;;;;;;13.87;73.57;99685.09;103536;1277;97995;-78
2023/05/21 00:11:05;;;;;;;20.10;10.30;;;;;;;13.83;73.61;99685.41;103428;1279;107685;-78
2023/05/21 00:13:33;;;;;;;19.50;10.20;;;;;;;13.77;73.51;99684.98;103421;1283;97445;-78
2023/05/21 00:16:01;;;;;;;23.50;10.30;;;;;;;13.72;73.63;99686.20;103455;1277;97633;-78
2023/05/21 00:18:31;;;;;;;21.20;9.10;;;;;;;13.67;73.56;99686.56;103567;1286;109876;-79
2023/05/21 00:21:00;;;;;;;21.10;10.30;;;;;;;13.61;73.56;99681.87;103488;1277;97559;-77
2023/05/21 00:23:31;;;;;;;21.70;9.60;;;;;;;13.58;73.68;99681.27;103415;1280;108734;-77
2023/05/21 00:26:00;;;;;;;20.50;9.30;;;;;;;13.54;73.60;99682.00;103361;1280;97845;-78
2023/05/21 00:28:27;;;;;;;19.80;8.90;;;;;;;13.51;73.66;99680.64;103295;1277;97225;-78
2023/05/21 00:30:55;;;;;;;18.30;8.70;;;;;;;13.45;73.62;99678.65;103378;1277;109072;-77
2023/05/21 00:33:25;;;;;;;21.30;9.10;;;;;;;13.38;73.61;99680.35;103373;1286;97990;-77
2023/05/21 00:35:54;;;;;;;16.30;8.20;;;;;;;13.33;73.68;99681.27;103369;1279;108926;-77
2023/05/21 00:38:26;;;;;;;17.30;8.50;;;;;;;13.28;73.72;99681.64;103451;1277;96648;-78
2023/05/21 00:40:54;;;;;;;17.30;8.10;;;;;;;13.23;73.67;99686.06;103395;1283;96637;-78
2023/05/21 00:43:25;;;;;;;19.60;9.50;;;;;;;13.17;73.71;99686.17;103345;1279;110963;-79
2023/05/21 00:45:55;;;;;;;20.40;8.90;;;;;;;13.11;73.75;99687.84;103386;1281;96724;-79
2023/05/21 00:48:23;;;;;;;16.20;8.10;;;;;;;13.06;73.87;99685.67;103726;1279;108901;-79
2023/05/21 00:50:52;;;;;;;20.60;9.70;;;;;;;13.03;73.86;99685.59;103594;1279;98040;-78
2023/05/21 00:53:20;;;;;;;18.80;8.60;;;;;;;12.98;73.78;99681.52;103679;1279;96623;-78
2023/05/21 00:55:49;;;;;;;18.30;7.80;;;;;;;12.94;73.92;99681.80;103681;1277;110850;-78
2023/05/21 00:58:17;;;;;;;17.90;8.30;;;;;;;12.89;73.91;99678.73;103606;1277;97865;-78
2023/05/21 01:00:46;;;;;;;23.10;8.30;;;;;;;12.84;73.88;99682.00;103715;1279;109008;-78
2023/05/21 01:03:15;;;;;;;14.50;7.80;;;;;;;12.76;73.86;99681.97;103672;1278;98100;-78
2023/05/21 01:05:45;;;;;;;20.50;9.20;;;;;;;12.73;73.97;99681.88;103525;1284;96613;-78
2023/05/21 01:08:13;;;;;;;21.00;9.70;;;;;;;12.71;74.07;99678.24;103419;1279;109774;-78
2023/05/21 01:10:41;;;;;;;19.20;9.80;;;;;;;12.72;73.86;99675.55;103878;1279;96669;-79
2023/05/21 01:13:09;;;;;;;17.30;8.00;;;;;;;12.66;73.86;99674.32;103266;1279;107886;-78
2023/05/21 01:15:37;;;;;;;18.20;8.30;;;;;;;12.60;73.89;99670.33;103392;1280;96632;-78
2023/05/21 01:18:08;;;;;;;18.20;8.80;;;;;;;12.53;73.91;99666.92;103358;1279;97967;-79
2023/05/21 01:20:36;;;;;;;19.30;9.10;;;;;;;12.49;74.01;99666.48;103404;1276;110199;-78
2023/05/21 01:23:05;;;;;;;18.30;9.20;;;;;;;12.51;74.16;99662.62;103398;1280;97350;-80
2023/05/21 01:25:33;;;;;;;20.90;8.60;;;;;;;12.51;74.13;99658.86;103409;1281;108538;-78
2023/05/21 01:28:02;;;;;;;17.60;8.40;;;;;;;12.51;74.13;99656.52;103494;1286;96717;-79
2023/05/21 01:30:30;;;;;;;16.10;8.20;;;;;;;12.53;74.25;99653.23;103457;1281;96643;-78
2023/05/21 01:33:16;;;;;;;18.80;8.40;;;;;;;12.55;74.28;99655.59;103491;1279;110460;-78
2023/05/21 01:36:14;;;;;;;17.30;9.00;;;;;;;12.56;74.40;99654.08;103581;1280;96855;-77
2023/05/21 01:38:52;;;;;;;19.50;8.20;;;;;;;12.56;74.34;99649.44;103303;1278;108980;-78
2023/05/21 01:41:21;;;;;;;18.90;9.30;;;;;;;12.55;74.39;99652.22;103220;1289;96634;-77
2023/05/21 01:43:51;;;;;;;21.30;9.30;;;;;;;12.53;74.32;99650.39;103431;1285;96638;-77
2023/05/21 01:46:23;;;;;;;20.20;8.60;;;;;;;12.54;74.31;99648.73;103352;1280;110264;-78
2023/05/21 01:48:55;;;;;;;20.20;9.50;;;;;;;12.52;74.32;99646.70;103348;1277;97860;-77
2023/05/21 01:51:23;;;;;;;18.00;8.80;;;;;;;12.51;74.31;99646.07;103333;1280;108084;-77
2023/05/21 01:53:50;;;;;;;17.80;8.50;;;;;;;12.47;74.32;99646.36;103314;1280;96715;-77
2023/05/21 01:56:18;;;;;;;19.50;9.60;;;;;;;12.44;74.35;99649.07;103341;1277;96580;-78
2023/05/21 01:58:48;;;;;;;21.50;9.30;;;;;;;12.43;74.41;99650.38;103152;1277;189553;-79
2023/05/21 02:01:16;;;;;;;20.70;10.90;;;;;;;12.42;74.42;99651.15;103249;1279;96631;-78
2023/05/21 02:03:44;;;;;;;20.70;10.20;;;;;;;12.41;74.37;99653.73;103626;1283;107927;-78
2023/05/21 02:06:12;;;;;;;18.40;10.20;;;;;;;12.38;74.41;99649.33;103395;1280;97903;-78
2023/05/21 02:08:40;;;;;;;18.20;9.40;;;;;;;12.34;74.35;99649.90;103293;1279;96600;-78
2023/05/21 02:11:08;;;;;;;17.20;9.40;;;;;;;12.31;74.37;99651.52;103393;1280;108748;-78
2023/05/21 02:13:41;;;;;;;20.70;10.10;;;;;;;12.27;74.35;99651.80;103307;1280;97964;-78
2023/05/21 02:16:10;;;;;;;22.10;11.30;;;;;;;12.22;74.37;99649.14;103436;1279;109011;-77
2023/05/21 02:18:40;;;;;;;19.30;9.70;;;;;;;12.18;74.39;99648.17;103371;1279;97954;-78
2023/05/21 02:21:12;;;;;;;19.40;9.00;;;;;;;12.15;74.49;99643.44;103345;1292;96654;-78
2023/05/21 02:23:41;;;;;;;19.60;9.00;;;;;;;12.10;74.47;99640.55;103267;1277;109247;-78
2023/05/21 02:26:09;;;;;;;20.20;9.70;;;;;;;12.04;74.53;99637.77;103408;1279;96632;-78
2023/05/21 02:28:37;;;;;;;19.70;9.60;;;;;;;12.02;74.51;99639.17;103250;1277;106846;-77
2023/05/21 02:31:05;;;;;;;19.70;9.20;;;;;;;11.96;74.44;99639.77;103333;1280;97060;-78
2023/05/21 02:33:32;;;;;;;19.20;9.70;;;;;;;11.88;74.44;99637.95;103329;1278;96645;-78
2023/05/21 02:36:00;;;;;;;21.70;9.40;;;;;;;11.83;74.57;99637.23;103392;1279;109568;-76
2023/05/21 02:38:31;;;;;;;20.30;10.30;;;;;;;11.76;74.56;99635.55;103274;1289;97952;-77
2023/05/21 02:40:59;;;;;;;21.50;10.10;;;;;;;11.74;74.66;99634.28;103253;1279;107003;-78
2023/05/21 02:43:27;;;;;;;18.20;8.90;;;;;;;11.73;74.63;99629.75;103348;1279;96647;-77
2023/05/21 02:45:55;;;;;;;24.80;10.20;;;;;;;11.69;74.65;99629.12;103326;1280;96715;-77
2023/05/21 02:48:22;;;;;;;19.20;9.30;;;;;;;11.65;74.59;99629.22;103478;1278;109044;-77
2023/05/21 02:50:51;;;;;;;16.70;8.40;;;;;;;11.62;74.55;99631.88;103480;1281;97482;-77
2023/05/21 02:53:19;;;;;;;19.00;9.20;;;;;;;11.60;74.52;99629.41;103412;1277;108091;-78
2023/05/21 02:55:47;;;;;;;19.30;10.00;;;;;;;11.55;74.61;99630.05;103237;1280;97171;-78
2023/05/21 02:58:14;;;;;;;19.50;9.20;;;;;;;11.54;74.55;99625.20;103291;1283;96570;-77
2023/05/21 03:00:42;;;;;;;18.00;9.40;;;;;;;11.52;74.70;99621.59;103342;1292;111222;-78
2023/05/21 03:03:10;;;;;;;18.60;9.60;;;;;;;11.52;74.59;99618.74;103285;1283;96653;-78
2023/05/21 03:05:38;;;;;;;20.60;9.90;;;;;;;11.52;74.81;99612.55;103383;1280;106969;-78
2023/05/21 03:08:06;;;;;;;21.40;10.20;;;;;;;11.54;74.79;99614.70;103354;1283;96670;-78
2023/05/21 03:10:34;;;;;;;19.90;10.60;;;;;;;11.55;74.89;99618.02;103336;1279;96615;-78
2023/05/21 03:13:03;;;;;;;18.90;9.70;;;;;;;11.58;74.99;99618.67;103292;1278;109029;-77
2023/05/21 03:15:34;;;;;;;19.40;9.60;;;;;;;11.63;74.93;99616.02;103326;1291;97451;-78
2023/05/21 03:18:03;;;;;;;19.20;8.30;;;;;;;11.66;74.81;99613.67;103333;1277;108966;-77
2023/05/21 03:20:32;;;;;;;15.60;7.70;;;;;;;11.67;74.70;99613.15;103298;1289;96628;-77
2023/05/21 03:23:03;;;;;;;16.80;7.60;;;;;;;11.64;74.71;99608.16;103320;1279;96638;-77
2023/05/21 03:25:31;;;;;;;14.80;7.40;;;;;;;11.62;74.90;99604.72;103339;1289;110203;-77
2023/05/21 03:27:58;;;;;;;19.70;8.00;;;;;;;11.68;75.02;99604.73;103338;1289;96660;-77
2023/05/21 03:30:26;;;;;;;17.30;8.00;;;;;;;11.73;75.00;99606.48;103547;1289;107927;-77
2023/05/21 03:32:55;;;;;;;18.30;8.20;;;;;;;11.76;74.96;99607.67;103344;1279;97556;-78
2023/05/21 03:35:23;;;;;;;19.00;7.70;;;;;;;11.80;75.03;99606.91;103390;1284;97658;-77
2023/05/21 03:37:50;;;;;;;15.10;7.50;;;;;;;11.82;75.09;99606.20;103347;1286;111182;-77
2023/05/21 03:40:18;;;;;;;14.10;7.00;;;;;;;11.87;75.00;99607.30;103325;1290;97578;-77
2023/05/21 03:42:46;;;;;;;13.90;6.70;;;;;;;11.89;74.93;99609.27;103317;1290;107955;-77
2023/05/21 03:45:15;;;;;;;17.10;7.60;;;;;;;11.94;75.11;99613.27;103321;1280;96651;-76
2023/05/21 03:47:42;;;;;;;16.50;7.30;;;;;;;11.96;75.18;99610.95;103269;1283;96673;-77
2023/05/21 03:50:11;;;;;;;15.40;6.70;;;;;;;11.99;75.09;99611.44;103400;1287;110977;-77
2023/05/21 03:52:39;;;;;;;14.30;6.50;;;;;;;12.03;75.12;99609.56;103285;1279;96632;-77
2023/05/21 03:55:07;;;;;;;16.10;6.10;;;;;;;12.08;75.16;99609.77;103343;1279;107864;-78
2023/05/21 03:57:36;;;;;;;13.10;6.30;;;;;;;12.14;75.23;99617.70;103283;1288;96737;-77
2023/05/21 04:00:07;;;;;;;14.10;6.30;;;;;;;12.21;75.19;99618.89;103408;1280;96625;-79
2023/05/21 04:02:34;;;;;;;15.30;6.70;;;;;;;12.26;75.17;99621.89;103295;1281;108220;-77
2023/05/21 04:05:03;;;;;;;16.60;7.10;;;;;;;12.30;75.15;99628.48;103355;1280;97576;-78
2023/05/21 04:07:31;;;;;;;14.00;6.90;;;;;;;12.36;75.24;99629.16;103274;1279;108872;-77
2023/05/21 04:09:59;;;;;;;17.40;7.30;;;;;;;12.42;75.23;99624.27;103291;1281;96691;-78
2023/05/21 04:12:27;;;;;;;15.20;6.80;;;;;;;12.48;75.10;99624.21;103717;1280;98387;-77
2023/05/21 04:14:55;;;;;;;16.90;6.80;;;;;;;12.54;75.27;99624.67;103280;1279;110153;-78
2023/05/21 04:17:25;;;;;;;17.60;6.50;;;;;;;12.60;75.21;99621.92;103467;1290;96645;-78
2023/05/21 04:19:53;;;;;;;15.70;6.70;;;;;;;12.68;75.38;99620.32;103538;1280;108022;-77
2023/05/21 04:22:22;;;;;;;14.50;6.20;;;;;;;12.76;75.45;99619.73;103340;1280;97555;-78
2023/05/21 04:24:49;;;;;;;12.90;6.50;;;;;;;12.84;75.27;99617.91;103267;1287;96644;-77
2023/05/21 04:27:18;;;;;;;15.70;6.10;;;;;;;12.92;75.24;99615.55;103276;1280;110811;-78
2023/05/21 04:29:47;;;;;;;13.50;6.10;;;;;;;13.00;75.25;99615.64;103355;1286;96641;-77
2023/05/21 04:32:17;;;;;;;11.00;5.20;;;;;;;13.10;75.20;99616.37;103244;1280;107057;-76
2023/05/21 04:34:45;;;;;;;12.10;5.50;;;;;;;13.19;75.22;99613.70;103302;1280;96571;-77
2023/05/21 04:37:13;;;;;;;13.50;5.60;;;;;;;13.30;75.37;99613.27;103326;1287;96639;-77
2023/05/21 04:39:41;;;;;;;11.80;5.60;;;;;;;13.40;75.40;99612.16;103257;1279;110136;-77
2023/05/21 04:42:12;;;;;;;13.70;5.10;;;;;;;13.51;75.39;99617.23;103334;1279;96570;-78
2023/05/21 04:44:43;;;;;;;12.90;5.60;;;;;;;13.63;75.45;99616.86;103286;1285;107377;-77
2023/05/21 04:47:13;;;;;;;13.60;5.50;;;;;;;14.02;76.21;99616.58;103299;1284;100271;-78
2023/05/21 04:49:41;;;;;;;11.90;4.90;;;;;;;14.56;77.01;99616.79;103389;1292;96622;-77
2023/05/21 04:52:09;;;;;;;14.30;5.50;;;;;;;15.01;77.20;99606.21;103370;1280;109870;-79
2023/05/21 04:54:37;;;;;;;12.60;4.60;;;;;;;15.44;77.50;99602.79;103387;1288;96659;-78
2023/05/21 04:57:05;;;;;;;14.30;4.90;;;;;;;15.82;77.36;99602.98;103403;1280;107736;-79
2023/05/21 04:59:34;;;;;;;14.40;5.30;;;;;;;16.11;77.28;99598.20;103333;1286;98027;-78
2023/05/21 05:02:02;;;;;;;12.90;5.00;;;;;;;16.31;76.89;99604.19;103550;1280;96632;-77
2023/05/21 05:04:30;;;;;;;10.10;4.90;;;;;;;16.17;75.83;99602.02;104448;1279;112066;-78
2023/05/21 05:06:58;;;;;;;13.00;5.10;;;;;;;15.92;75.15;99600.93;103482;1286;97840;-78
2023/05/21 05:09:26;;;;;;;10.20;4.70;;;;;;;15.73;74.87;99601.84;103492;1276;106834;-78
2023/05/21 05:11:53;;;;;;;11.50;4.90;;;;;;;15.59;74.81;99601.75;103380;1284;96644;-77
2023/05/21 05:14:21;;;;;;;12.50;4.90;;;;;;;15.49;74.76;99601.32;103315;1287;96603;-78
2023/05/21 05:16:49;;;;;;;15.80;5.90;;;;;;;15.45;74.75;99603.84;103327;1283;110207;-77
2023/05/21 05:19:17;;;;;;;15.10;5.70;;;;;;;15.42;74.63;99602.08;103344;1283;96643;-77
2023/05/21 05:21:45;;;;;;;11.90;4.80;;;;;;;15.37;74.41;99608.73;103395;1276;106776;-78
2023/05/21 05:24:13;;;;;;;13.10;5.70;;;;;;;15.33;74.33;99608.73;103264;1283;97563;-77
2023/05/21 05:26:40;;;;;;;13.00;4.90;;;;;;;15.30;74.33;99605.95;103346;1283;96629;-77
2023/05/21 05:29:08;;;;;;;12.30;4.70;;;;;;;15.26;74.27;99607.70;103324;1288;109449;-78
2023/05/21 05:31:36;;;;;;;13.70;4.90;;;;;;;15.23;74.12;99602.81;103281;1290;96634;-78
2023/05/21 05:34:04;;;;;;;11.90;5.40;;;;;;;15.19;74.06;99611.67;103354;1289;108894;-77
2023/05/21 05:36:32;;;;;;;12.50;5.40;;;;;;;15.18;73.96;99612.11;103291;1283;96794;-78
2023/05/21 05:39:00;;;;;;;11.70;4.80;;;;;;;15.17;73.88;99609.84;103279;1283;96654;-77
2023/05/21 05:41:28;;;;;;;19.00;5.30;;;;;;;15.16;73.99;99608.35;103385;1280;110269;-77
2023/05/21 05:43:55;;;;;;;14.90;6.40;;;;;;;15.17;74.00;99609.90;103339;1280;96628;-76
2023/05/21 05:46:23;;;;;;;11.00;5.60;;;;;;;15.20;74.03;99605.76;103298;1280;108914;-77
2023/05/21 05:48:51;;;;;;;16.90;5.60;;;;;;;15.23;73.86;99606.23;103314;1290;96677;-78
2023/05/21 05:51:19;;;;;;;14.90;5.60;;;;;;;15.25;74.10;99603.52;103346;1289;96673;-77
2023/05/21 05:53:47;;;;;;;17.50;5.50;;;;;;;15.29;73.90;99600.66;103389;1279;109782;-76
2023/05/21 05:56:15;;;;;;;13.90;4.90;;;;;;;15.34;73.86;99598.63;103248;1289;96773;-77
2023/05/21 05:58:43;;;;;;;10.30;4.90;;;;;;;15.38;73.98;99597.09;103377;1279;107064;-76
2023/05/21 06:01:12;;;;;;;14.70;4.90;;;;;;;15.41;73.73;99597.33;103263;1281;96768;-77
2023/05/21 06:03:40;;;;;;;13.80;5.40;;;;;;;15.45;73.78;99599.89;103332;1279;96639;-77
2023/05/21 06:06:08;;;;;;;11.60;5.10;;;;;;;15.48;73.79;99607.50;103364;1284;111173;-78
2023/05/21 06:08:36;;;;;;;14.90;5.40;;;;;;;15.48;73.68;99602.14;103393;1283;96724;-77
2023/05/21 06:11:05;;;;;;;14.10;5.50;;;;;;;15.51;73.72;99602.38;103282;1285;106997;-79
2023/05/21 06:13:33;;;;;;;21.00;5.80;;;;;;;15.56;73.69;99600.01;103294;1280;96628;-77
2023/05/21 06:16:00;;;;;;;13.20;4.90;;;;;;;15.58;73.52;99599.46;103429;1283;97658;-76
2023/05/21 06:18:28;;;;;;;12.80;5.60;;;;;;;15.62;73.41;99599.70;103346;1282;110248;-78
2023/05/21 06:20:56;;;;;;;14.00;5.60;;;;;;;15.65;73.22;99596.44;103361;1279;96766;-76
2023/05/21 06:23:24;;;;;;;14.60;5.90;;;;;;;15.67;73.22;99593.60;103345;1288;108824;-77
2023/05/21 06:25:52;;;;;;;11.20;5.20;;;;;;;15.70;73.32;99589.03;103334;1280;97403;-76
2023/05/21 06:28:19;;;;;;;13.00;5.30;;;;;;;15.76;73.24;99584.41;103398;1279;96555;-76
2023/05/21 06:30:47;;;;;;;12.50;5.40;;;;;;;15.81;73.23;99586.08;103338;1282;111198;-77
2023/05/21 06:33:15;;;;;;;11.90;5.50;;;;;;;15.87;73.00;99581.70;103412;1279;96675;-78
2023/05/21 06:35:43;;;;;;;10.80;5.10;;;;;;;15.90;73.22;99579.95;103284;1280;107935;-76
2023/05/21 06:38:11;;;;;;;11.50;4.90;;;;;;;15.95;73.19;99582.56;103434;1283;97590;-77
2023/05/21 06:40:38;;;;;;;17.50;5.90;;;;;;;16.00;73.15;99579.28;103376;1277;96606;-78
2023/05/21 06:43:06;;;;;;;15.00;5.70;;;;;;;16.05;73.14;99575.62;103275;1283;109096;-79
2023/05/21 06:45:34;;;;;;;11.00;5.10;;;;;;;16.11;73.03;99571.54;103322;1288;96621;-78
2023/05/21 06:48:02;;;;;;;16.10;5.80;;;;;;;16.19;73.16;99568.88;103354;1279;108068;-77
2023/05/21 06:50:30;;;;;;;15.20;5.90;;;;;;;16.27;73.11;99570.13;103333;1289;97552;-75
2023/05/21 06:52:58;;;;;;;14.00;5.50;;;;;;;16.34;72.91;99568.45;103408;1283;96565;-76
2023/05/21 06:55:25;;;;;;;12.20;5.20;;;;;;;16.42;72.98;99566.38;103404;1279;110290;-78
2023/05/21 06:57:53;;;;;;;13.50;5.00;;;;;;;16.50;72.78;99567.03;103452;1279;96638;-78
2023/05/21 07:00:21;;;;;;;13.00;4.90;;;;;;;16.57;72.82;99563.90;103283;1277;107947;-78
2023/05/21 07:02:49;;;;;;;11.90;5.00;;;;;;;16.64;72.89;99566.66;103333;1288;96637;-78
2023/05/21 07:05:17;;;;;;;9.90;4.40;;;;;;;16.72;72.77;99564.98;103303;1289;96596;-78
2023/05/21 07:07:45;;;;;;;11.90;4.80;;;;;;;16.79;72.59;99563.17;103331;1286;109152;-76
2023/05/21 07:10:12;;;;;;;14.20;4.70;;;;;;;16.87;72.48;99561.61;103417;1284;97643;-78
2023/05/21 07:12:40;;;;;;;10.50;4.40;;;;;;;16.96;72.41;99562.06;103397;1288;107979;-78
2023/05/21 07:15:08;;;;;;;10.80;4.90;;;;;;;17.06;72.39;99561.73;103480;1276;96596;-78
2023/05/21 07:17:37;;;;;;;13.00;4.60;;;;;;;17.14;72.28;99561.52;103428;1283;96711;-76
2023/05/21 07:20:06;;;;;;;13.40;4.60;;;;;;;17.22;72.20;99561.33;103658;1279;110383;-79
2023/05/21 07:22:37;;;;;;;12.10;4.20;;;;;;;17.29;72.17;99559.96;103378;1286;96711;-78
2023/05/21 07:25:06;;;;;;;12.00;4.90;;;;;;;17.36;72.03;99560.53;103385;1277;107981;-79
2023/05/21 07:27:34;;;;;;;12.60;5.20;;;;;;;17.46;72.00;99562.34;103384;1280;96733;-77
2023/05/21 07:30:01;;;;;;;11.60;4.70;;;;;;;17.58;71.71;99564.41;103552;1277;96561;-77
2023/05/21 07:32:29;;;;;;;12.00;4.60;;;;;;;17.67;71.90;99558.73;103578;1283;109923;-78
2023/05/21 07:35:00;;;;;;;13.70;4.80;;;;;;;17.75;71.73;99555.64;103577;1290;97342;-81
2023/05/21 07:37:28;;;;;;;9.60;4.30;;;;;;;17.80;71.49;99555.14;105563;1275;105810;-82
2023/05/21 07:39:59;;;;;;;15.10;5.40;;;;;;;17.84;71.59;99554.63;103567;1280;97939;-79
2023/05/21 07:42:27;;;;;;;12.20;4.60;;;;;;;17.90;71.26;99554.07;103636;1289;96556;-81
2023/05/21 07:44:55;;;;;;;11.30;4.70;;;;;;;17.94;71.41;99554.96;103414;1279;110378;-82
2023/05/21 07:47:23;;;;;;;12.00;5.10;;;;;;;17.94;71.17;99555.49;103523;1290;97945;-79
2023/05/21 07:49:50;;;;;;;13.50;5.00;;;;;;;17.95;71.18;99554.44;103683;1282;106935;-78
2023/05/21 07:52:18;;;;;;;14.90;5.50;;;;;;;17.96;71.20;99561.03;104531;1276;97460;-78
2023/05/21 07:54:46;;;;;;;10.20;5.00;;;;;;;17.97;71.00;99561.45;104215;1279;97227;-80
2023/05/21 07:57:14;;;;;;;10.10;4.90;;;;;;;17.97;71.00;99560.23;104140;1279;109891;-80
2023/05/21 07:59:41;;;;;;;12.80;4.80;;;;;;;17.93;70.73;99557.55;103740;1276;96631;-78
2023/05/21 08:02:09;;;;;;;13.00;5.00;;;;;;;17.90;70.40;99562.33;103534;1279;108718;-78
2023/05/21 08:04:37;;;;;;;13.80;4.80;;;;;;;17.89;70.47;99561.19;103579;1279;96612;-80
2023/05/21 08:07:08;;;;;;;11.80;5.30;;;;;;;17.89;70.37;99558.46;103553;1276;96740;-77
2023/05/21 08:09:36;;;;;;;12.30;5.70;;;;;;;17.93;70.57;99560.77;103699;1277;108620;-79
2023/05/21 08:12:04;;;;;;;10.80;5.00;;;;;;;17.96;70.14;99560.30;104003;1279;96839;-79
2023/05/21 08:14:32;;;;;;;10.20;4.90;;;;;;;17.98;70.29;99559.17;103939;1276;107682;-83
2023/05/21 08:17:00;;;;;;;10.60;4.30;;;;;;;18.00;70.23;99560.64;103453;1277;96678;-78
2023/05/21 08:19:28;;;;;;;10.50;4.40;;;;;;;18.03;70.17;99556.25;103506;1279;96636;-79
2023/05/21 08:21:56;;;;;;;9.70;4.50;;;;;;;18.07;70.20;99554.32;103708;1277;109583;-78
2023/05/21 08:24:25;;;;;;;12.00;4.70;;;;;;;18.12;70.04;99554.89;103668;1274;97093;-78
2023/05/21 08:26:53;;;;;;;10.00;4.80;;;;;;;18.16;69.84;99555.38;103644;1277;108938;-77
2023/05/21 08:29:20;;;;;;;10.20;4.60;;;;;;;18.17;69.81;99557.48;103561;1279;96693;-78
2023/05/21 08:31:48;;;;;;;10.00;4.80;;;;;;;18.19;69.93;99556.55;103508;1275;96707;-79
2023/05/21 08:34:17;;;;;;;10.60;4.80;;;;;;;18.25;69.77;99558.09;103707;1276;109400;-78
2023/05/21 08:36:46;;;;;;;13.00;5.60;;;;;;;18.31;69.83;99553.08;103568;1281;96677;-74
2023/05/21 08:39:14;;;;;;;13.00;4.80;;;;;;;18.37;69.76;99551.02;103510;1279;107200;-73
2023/05/21 08:41:48;;;;;;;11.60;5.10;;;;;;;18.41;69.53;99552.06;103550;1277;96740;-75
2023/05/21 08:44:20;;;;;;;11.80;4.60;;;;;;;18.43;69.39;99552.74;103592;1279;96670;-77
2023/05/21 08:46:50;;;;;;;11.40;5.00;;;;;;;18.43;69.14;99553.97;103698;1279;109975;-78
2023/05/21 08:49:25;;;;;;;9.20;4.70;;;;;;;18.48;69.07;99552.13;103616;1279;96666;-78
2023/05/21 08:51:55;;;;;;;12.80;4.80;;;;;;;18.53;69.02;99555.05;103479;1279;106882;-77
2023/05/21 08:54:22;;;;;;;9.60;4.80;;;;;;;18.60;68.84;99552.39;103502;1280;96796;-78
2023/05/21 08:56:52;;;;;;;13.90;5.10;;;;;;;18.66;68.81;99545.31;103690;1276;97852;-77
2023/05/21 08:59:20;;;;;;;10.50;4.60;;;;;;;18.72;68.90;99548.02;103944;1276;108297;-77
2023/05/21 09:01:48;;;;;;;11.30;4.30;;;;;;;18.77;68.86;99540.46;103557;1275;96626;-76
2023/05/21 09:04:17;;;;;;;11.40;4.20;;;;;;;18.83;68.71;99543.98;103746;1276;107773;-76
2023/05/21 09:06:49;;;;;;;15.10;4.90;;;;;;;18.87;67.64;99547.55;103599;1279;97452;-76
2023/05/21 09:09:32;;;;;;;12.80;4.60;;;;;;;18.90;68.40;99551.71;103857;1276;97086;-76
2023/05/21 09:11:59;;;;;;;10.20;3.90;;;;;;;18.93;68.28;99544.84;103721;1276;112046;-78
2023/05/21 09:14:28;;;;;;;12.20;4.40;;;;;;;18.97;68.24;99549.34;103646;1283;97436;-81
2023/05/21 09:16:56;;;;;;;11.10;4.30;;;;;;;18.98;68.05;99548.79;103790;1276;107930;-78
2023/05/21 09:19:24;;;;;;;11.50;4.20;;;;;;;18.96;67.93;99545.60;103708;1276;96727;-79
2023/05/21 09:21:51;;;;;;;12.90;4.30;;;;;;;18.97;67.76;99541.70;103626;1276;96643;-77
2023/05/21 09:24:22;;;;;;;16.30;5.00;;;;;;;19.03;67.61;99546.57;103573;1275;111102;-77
2023/05/21 09:26:51;;;;;;;8.60;4.60;;;;;;;19.08;67.12;99542.84;103485;1279;96559;-77
2023/05/21 09:29:19;;;;;;;12.70;4.40;;;;;;;19.12;67.32;99544.44;103629;1277;108115;-77
2023/05/21 09:31:46;;;;;;;8.50;4.30;;;;;;;19.15;66.98;99544.27;103585;1279;97566;-77
2023/05/21 09:34:14;;;;;;;9.70;4.20;;;;;;;19.20;66.96;99541.08;103649;1276;96779;-76
2023/05/21 09:36:42;;;;;;;10.50;4.10;;;;;;;19.24;67.12;99542.12;103476;1279;108372;-78
2023/05/21 09:39:15;;;;;;;9.20;4.00;;;;;;;19.28;66.83;99540.05;103623;1277;96625;-77
2023/05/21 09:41:43;;;;;;;14.30;3.80;;;;;;;19.33;66.87;99536.92;103573;1277;108027;-77
2023/05/21 09:44:11;;;;;;;8.70;3.70;;;;;;;19.36;66.77;99541.75;103521;1280;96613;-76
2023/05/21 09:46:39;;;;;;;10.40;4.00;;;;;;;19.37;66.02;99545.09;103535;1279;96622;-77
2023/05/21 09:49:25;;;;;;;12.40;4.00;;;;;;;19.38;66.14;99545.88;103532;1283;109968;-77
2023/05/21 09:51:55;;;;;;;13.30;3.80;;;;;;;19.41;65.76;99540.88;103587;1280;96631;-76
2023/05/21 09:54:23;;;;;;;13.90;4.90;;;;;;;19.46;65.95;99542.23;103555;1276;106879;-76
2023/05/21 09:56:54;;;;;;;8.40;3.50;;;;;;;19.52;66.06;99539.23;103624;1277;97475;-78
2023/05/21 09:59:22;;;;;;;12.60;4.20;;;;;;;19.61;65.90;99540.71;103560;1276;96692;-77
2023/05/21 10:01:51;;;;;;;10.00;3.80;;;;;;;19.67;65.51;99535.92;103484;1290;110014;-77
2023/05/21 10:04:21;;;;;;;8.60;3.70;;;;;;;19.69;65.54;99540.40;103654;1276;96645;-76
2023/05/21 10:06:50;;;;;;;10.00;3.90;;;;;;;19.72;65.56;99538.89;103733;1275;106933;-75
2023/05/21 10:09:18;;;;;;;14.50;4.00;;;;;;;19.77;65.61;99538.88;103923;1279;96554;-76
2023/05/21 10:11:48;;;;;;;13.00;4.20;;;;;;;19.81;65.37;99533.81;103652;1277;96538;-76
2023/05/21 10:14:21;;;;;;;13.80;3.70;;;;;;;19.84;65.09;99532.71;103715;1279;111233;-77
2023/05/21 10:16:53;;;;;;;7.00;3.40;;;;;;;19.86;65.15;99533.14;103715;1279;97544;-77
2023/05/21 10:19:22;;;;;;;9.80;3.90;;;;;;;19.89;65.05;99530.21;103695;1277;109038;-77
2023/05/21 10:21:53;;;;;;;9.60;3.70;;;;;;;19.94;65.13;99531.96;103814;1276;96631;-76
2023/05/21 10:24:22;;;;;;;6.80;3.30;;;;;;;19.96;64.56;99533.31;103978;1279;96654;-76
2023/05/21 10:26:50;;;;;;;11.20;3.50;;;;;;;20.03;64.76;99531.05;103688;1276;111090;-76
2023/05/21 10:29:18;;;;;;;11.20;4.00;;;;;;;20.02;64.08;99526.60;103584;1279;97582;-76
2023/05/21 10:31:48;;;;;;;5.50;3.20;;;;;;;20.03;64.36;99527.20;103683;1280;108982;-77
2023/05/21 10:34:18;;;;;;;6.10;3.40;;;;;;;20.05;64.36;99526.03;103706;1280;98002;-76
2023/05/21 10:36:48;;;;;;;8.40;3.50;;;;;;;20.09;64.20;99523.02;103805;1277;96759;-77
2023/05/21 10:39:19;;;;;;;10.10;3.70;;;;;;;20.08;64.06;99516.02;103802;1280;111248;-78
2023/05/21 10:42:11;;;;;;;10.30;4.10;;;;;;;20.07;63.99;99509.50;103725;1276;96656;-78
2023/05/21 10:44:56;;;;;;;9.70;3.80;;;;;;;20.08;63.96;99513.55;103633;1275;107917;-78
2023/05/21 10:47:50;;;;;;;13.00;3.60;;;;;;;20.11;63.80;99511.79;103678;1287;97951;-77
2023/05/21 10:50:58;;;;;;;8.60;3.70;;;;;;;20.15;63.66;99506.53;103666;1276;97067;-77
2023/05/21 10:53:58;;;;;;;10.00;3.80;;;;;;;20.19;63.72;99508.97;103736;1275;110959;-77
2023/05/21 10:56:41;;;;;;;13.10;4.40;;;;;;;20.21;63.57;99502.96;103930;1279;96628;-76
2023/05/21 10:59:24;;;;;;;9.20;4.10;;;;;;;20.25;63.40;99502.80;103703;1276;107649;-78
2023/05/21 11:01:52;;;;;;;9.80;3.90;;;;;;;20.28;63.44;99499.45;103699;1276;97964;-76
2023/05/21 11:04:27;;;;;;;11.50;4.40;;;;;;;20.35;63.45;99499.70;103797;1280;96541;-75
2023/05/21 11:06:57;;;;;;;9.20;4.00;;;;;;;20.46;63.65;99491.90;103735;1280;110424;-79
2023/05/21 11:09:26;;;;;;;7.60;3.50;;;;;;;20.57;63.63;99492.50;103878;1276;97583;-79
2023/05/21 11:11:59;;;;;;;11.40;4.40;;;;;;;20.70;63.17;99491.50;103820;1277;108919;-79
2023/05/21 11:14:38;;;;;;;12.10;4.00;;;;;;;20.78;63.22;99491.33;103826;1276;97970;-77
2023/05/21 11:17:14;;;;;;;10.80;3.60;;;;;;;20.84;63.00;99485.90;103752;1276;97962;-78
2023/05/21 11:19:46;;;;;;;8.40;3.80;;;;;;;20.92;63.06;99483.94;103871;1276;108718;-79
2023/05/21 11:22:25;;;;;;;12.80;4.30;;;;;;;21.00;62.89;99485.56;103767;1279;96736;-77
2023/05/21 11:24:54;;;;;;;13.90;4.60;;;;;;;21.13;62.62;99487.52;103498;1277;107694;-78